Time;durP1;ratioP1;P1;durP2;ratioP2;P2;SDS_P1;SDS_P2;PMS_P1;PMS_P2;Temp;Humidity;BMP_temperature;BMP_pressure;BME280_temperature;BME280_humidity;BME280_pressure;Samples;Min_cycle;Max_cycle;Signal;HPM_P1;HPM_P2
2023/07/03 00:01:44;;;;;;;16.90;4.50;;;13.50;84.90;;;;;;4871738;28;88869;-73
2023/07/03 00:04:10;;;;;;;22.45;3.72;;;13.50;85.30;;;;;;4872438;28;88787;-73
2023/07/03 00:06:37;;;;;;;22.33;3.83;;;13.50;85.40;;;;;;4873242;28;87473;-73
2023/07/03 00:09:05;;;;;;;23.42;4.05;;;13.50;85.80;;;;;;4873771;28;87589;-73
2023/07/03 00:11:30;;;;;;;20.65;5.07;;;13.50;86.00;;;;;;4872110;28;88724;-73
2023/07/03 00:13:56;;;;;;;21.25;4.68;;;13.40;86.40;;;;;;4870997;28;89628;-72
2023/07/03 00:16:22;;;;;;;20.73;4.25;;;13.40;86.60;;;;;;4872911;28;87663;-73
2023/07/03 00:18:47;;;;;;;26.63;5.72;;;13.40;86.70;;;;;;4873673;28;87298;-72
2023/07/03 00:21:13;;;;;;;20.65;4.45;;;13.40;86.90;;;;;;4873217;28;87935;-73
2023/07/03 00:23:39;;;;;;;30.10;5.75;;;13.40;87.20;;;;;;4872256;28;88381;-73
2023/07/03 00:26:05;;;;;;;21.60;4.68;;;13.40;87.40;;;;;;4872510;28;88381;-73
2023/07/03 00:28:30;;;;;;;23.40;4.47;;;13.40;88.10;;;;;;4872444;28;87634;-73
2023/07/03 00:30:56;;;;;;;23.20;4.45;;;13.50;87.80;;;;;;4872441;28;88469;-73
2023/07/03 00:33:21;;;;;;;21.20;4.30;;;13.50;87.80;;;;;;4873947;28;88380;-73
2023/07/03 00:35:47;;;;;;;20.92;4.55;;;13.50;87.90;;;;;;4856362;28;87953;-72
2023/07/03 00:38:12;;;;;;;16.63;4.45;;;13.50;88.20;;;;;;4872395;28;87417;-73
2023/07/03 00:40:38;;;;;;;19.95;4.07;;;13.50;88.10;;;;;;4872604;28;87742;-72
2023/07/03 00:43:04;;;;;;;26.08;4.00;;;13.50;88.30;;;;;;4873441;28;88464;-73
2023/07/03 00:45:32;;;;;;;28.25;5.25;;;13.50;88.30;;;;;;4874124;28;87683;-72
2023/07/03 00:47:57;;;;;;;22.48;5.25;;;13.60;88.40;;;;;;4871877;28;92665;-73
2023/07/03 00:50:23;;;;;;;25.20;5.32;;;13.60;88.70;;;;;;4871428;28;89266;-73
2023/07/03 00:52:54;;;;;;;24.30;4.70;;;13.60;88.60;;;;;;4871650;28;89428;-73
2023/07/03 00:55:21;;;;;;;31.20;4.43;;;13.70;88.40;;;;;;4871653;28;87941;-73
2023/07/03 00:57:47;;;;;;;22.40;3.92;;;13.70;88.40;;;;;;4871899;28;87561;-72
2023/07/03 01:00:13;;;;;;;18.05;4.10;;;13.70;88.50;;;;;;4872544;28;88135;-73
2023/07/03 01:02:51;;;;;;;24.73;4.93;;;13.70;88.40;;;;;;4871905;28;88036;-72
2023/07/03 01:05:26;;;;;;;18.77;3.58;;;13.70;88.50;;;;;;4871867;28;87584;-72
2023/07/03 01:07:53;;;;;;;28.45;5.75;;;13.80;88.60;;;;;;4871965;28;87262;-73
2023/07/03 01:10:22;;;;;;;25.48;4.03;;;13.80;88.70;;;;;;4871475;28;87653;-73
2023/07/03 01:12:54;;;;;;;24.25;5.32;;;13.80;88.80;;;;;;4870824;28;88703;-72
2023/07/03 01:15:26;;;;;;;29.00;5.33;;;13.80;88.80;;;;;;4873136;28;88844;-73
2023/07/03 01:17:54;;;;;;;22.48;4.25;;;13.80;88.60;;;;;;4870620;28;88066;-73
2023/07/03 01:20:23;;;;;;;24.05;4.53;;;13.80;89.10;;;;;;4871264;28;88646;-73
2023/07/03 01:23:07;;;;;;;28.90;4.97;;;13.80;89.20;;;;;;4871395;28;89478;-73
2023/07/03 01:25:36;;;;;;;21.38;4.93;;;13.90;89.40;;;;;;4871856;28;87717;-72
2023/07/03 01:28:03;;;;;;;26.73;4.63;;;13.80;89.50;;;;;;4871601;28;87492;-73
2023/07/03 01:30:31;;;;;;;31.35;6.85;;;13.90;89.60;;;;;;4873018;28;88622;-72
2023/07/03 01:32:59;;;;;;;32.90;5.50;;;13.90;89.70;;;;;;4872005;28;92135;-73
2023/07/03 01:35:25;;;;;;;26.08;4.57;;;13.90;89.90;;;;;;4871310;28;87903;-72
2023/07/03 01:37:53;;;;;;;26.23;4.18;;;13.90;89.70;;;;;;4870370;28;88267;-73
2023/07/03 01:40:23;;;;;;;22.23;5.40;;;14.00;89.90;;;;;;4868908;28;89026;-73
2023/07/03 01:42:50;;;;;;;34.78;5.03;;;14.00;89.90;;;;;;4871271;28;88957;-72
2023/07/03 01:45:16;;;;;;;31.70;5.15;;;14.00;89.80;;;;;;4872189;28;87736;-72
2023/07/03 01:47:42;;;;;;;27.27;5.05;;;14.00;90.00;;;;;;4871465;28;87630;-73
2023/07/03 01:50:11;;;;;;;18.92;4.70;;;14.10;89.80;;;;;;4870746;28;89908;-73
2023/07/03 01:52:39;;;;;;;32.10;5.30;;;14.10;89.90;;;;;;4870851;28;89025;-73
2023/07/03 01:55:43;;;;;;;24.30;6.18;;;14.10;90.00;;;;;;4869759;28;87767;-73
2023/07/03 01:58:37;;;;;;;21.40;4.63;;;14.10;90.10;;;;;;4785637;28;88253;-72
2023/07/03 02:01:10;;;;;;;28.90;4.35;;;14.10;90.20;;;;;;4870402;28;89264;-73
2023/07/03 02:03:47;;;;;;;27.98;5.55;;;14.20;90.30;;;;;;4870318;28;87904;-73
2023/07/03 02:06:28;;;;;;;25.80;4.47;;;14.20;90.30;;;;;;4870601;28;89004;-72
2023/07/03 02:08:55;;;;;;;26.02;5.35;;;14.20;90.30;;;;;;4868469;28;87914;-72
2023/07/03 02:11:22;;;;;;;25.17;4.55;;;14.20;90.40;;;;;;4870285;28;88848;-72
2023/07/03 02:13:49;;;;;;;31.00;5.88;;;14.20;90.40;;;;;;4871608;28;87443;-73
2023/07/03 02:16:15;;;;;;;27.88;7.10;;;14.20;90.70;;;;;;4870932;28;87443;-73
2023/07/03 02:18:46;;;;;;;27.33;5.10;;;14.30;90.70;;;;;;4871037;28;87793;-73
2023/07/03 02:21:13;;;;;;;30.75;5.38;;;14.20;90.80;;;;;;4871546;28;88613;-72
2023/07/03 02:23:39;;;;;;;36.47;4.97;;;14.30;90.80;;;;;;4869890;28;88114;-72
2023/07/03 02:26:05;;;;;;;27.75;4.72;;;14.20;90.90;;;;;;4870858;28;87654;-73
2023/07/03 02:28:31;;;;;;;31.80;4.60;;;14.20;91.10;;;;;;4870224;28;90224;-73
2023/07/03 02:30:56;;;;;;;29.23;4.75;;;14.30;91.10;;;;;;4868992;28;91447;-72
2023/07/03 02:33:22;;;;;;;25.13;4.35;;;14.30;91.30;;;;;;4870630;28;88451;-72
2023/07/03 02:35:47;;;;;;;27.80;4.78;;;14.30;91.20;;;;;;4871051;28;88301;-73
2023/07/03 02:38:15;;;;;;;24.40;5.10;;;14.30;91.20;;;;;;4872038;28;87680;-72
2023/07/03 02:40:41;;;;;;;33.17;4.70;;;14.30;91.40;;;;;;4873686;28;88196;-72
2023/07/03 02:43:08;;;;;;;25.00;4.50;;;14.30;91.50;;;;;;4874346;28;88160;-73
2023/07/03 02:45:37;;;;;;;26.15;4.82;;;14.30;91.60;;;;;;4873328;28;87560;-72
2023/07/03 02:48:02;;;;;;;32.15;5.93;;;14.30;91.60;;;;;;4874614;28;86894;-72
2023/07/03 02:50:28;;;;;;;27.50;5.15;;;14.30;91.60;;;;;;4874447;28;89135;-73
2023/07/03 02:52:53;;;;;;;31.67;4.80;;;14.30;91.70;;;;;;4872713;28;87946;-72
2023/07/03 02:55:19;;;;;;;29.88;5.57;;;14.30;91.70;;;;;;4873160;28;88515;-73
2023/07/03 02:57:44;;;;;;;23.25;4.88;;;14.30;91.80;;;;;;4872642;28;88009;-72
2023/07/03 03:00:11;;;;;;;30.77;5.07;;;14.30;91.90;;;;;;4872809;28;89035;-72
2023/07/03 03:02:37;;;;;;;28.55;5.00;;;14.30;92.00;;;;;;4872442;28;87963;-72
2023/07/03 03:05:02;;;;;;;33.50;5.78;;;14.30;92.00;;;;;;4874228;28;87484;-73
2023/07/03 03:07:28;;;;;;;29.48;5.60;;;14.30;92.10;;;;;;4873746;28;87791;-72
2023/07/03 03:09:53;;;;;;;24.13;4.55;;;14.30;92.20;;;;;;4872739;28;88782;-73
2023/07/03 03:12:19;;;;;;;28.52;5.20;;;14.30;92.20;;;;;;4875225;28;88263;-73
2023/07/03 03:14:45;;;;;;;27.23;5.55;;;14.30;92.20;;;;;;4873708;28;88229;-72
2023/07/03 03:17:10;;;;;;;23.08;5.32;;;14.30;92.40;;;;;;4873110;28;87370;-73
2023/07/03 03:19:36;;;;;;;26.67;5.95;;;14.30;92.30;;;;;;4872816;28;97156;-72
2023/07/03 03:22:01;;;;;;;36.10;5.80;;;14.30;92.40;;;;;;4874057;28;88214;-72
2023/07/03 03:24:27;;;;;;;30.85;5.22;;;14.30;92.50;;;;;;4875086;28;87738;-72
2023/07/03 03:26:53;;;;;;;20.55;4.90;;;14.30;92.50;;;;;;4872542;28;87565;-73
2023/07/03 03:29:18;;;;;;;27.52;5.38;;;14.30;92.80;;;;;;4873443;28;88507;-73
2023/07/03 03:31:44;;;;;;;22.92;4.60;;;14.30;92.70;;;;;;4872907;28;88014;-72
2023/07/03 03:34:09;;;;;;;36.22;7.45;;;14.30;92.70;;;;;;4871770;28;87949;-72
2023/07/03 03:36:38;;;;;;;29.73;5.35;;;14.30;92.80;;;;;;4872859;28;87229;-72
2023/07/03 03:39:04;;;;;;;31.38;5.28;;;14.30;92.90;;;;;;4874298;28;88765;-73
2023/07/03 03:41:30;;;;;;;28.05;5.45;;;14.30;92.90;;;;;;4873728;28;88389;-73
2023/07/03 03:43:55;;;;;;;30.77;6.70;;;14.30;92.90;;;;;;4872106;28;88731;-72
2023/07/03 03:46:21;;;;;;;26.17;6.43;;;14.30;92.90;;;;;;4871949;28;87743;-72
2023/07/03 03:48:46;;;;;;;29.80;5.45;;;14.30;93.00;;;;;;4872182;28;88174;-74
2023/07/03 03:51:12;;;;;;;31.58;6.85;;;14.30;93.00;;;;;;4872752;28;87966;-73
2023/07/03 03:53:39;;;;;;;33.60;6.03;;;14.30;93.00;;;;;;4873272;28;87984;-73
2023/07/03 03:56:04;;;;;;;37.90;6.47;;;14.30;93.00;;;;;;4873239;28;88104;-73
2023/07/03 03:58:30;;;;;;;32.67;6.57;;;14.30;93.00;;;;;;4872222;28;88208;-72
2023/07/03 04:00:56;;;;;;;37.50;6.55;;;14.30;93.10;;;;;;4872429;28;94624;-73
2023/07/03 04:03:21;;;;;;;28.75;5.28;;;14.30;93.10;;;;;;4874049;28;87781;-73
2023/07/03 04:05:47;;;;;;;23.98;5.70;;;14.40;93.20;;;;;;4872482;28;87527;-73
2023/07/03 04:08:13;;;;;;;27.88;5.82;;;14.40;93.10;;;;;;4870759;28;89898;-73
2023/07/03 04:10:42;;;;;;;22.17;5.80;;;14.40;93.20;;;;;;4872486;28;89660;-73
2023/07/03 04:13:08;;;;;;;29.17;5.93;;;14.40;93.20;;;;;;4870878;28;87815;-73
2023/07/03 04:15:37;;;;;;;23.83;6.10;;;14.40;93.40;;;;;;4877932;28;88052;-73
2023/07/03 04:18:03;;;;;;;25.83;6.18;;;14.40;93.30;;;;;;4876688;28;89543;-76
2023/07/03 04:20:28;;;;;;;31.75;6.55;;;14.40;93.30;;;;;;4877169;28;88139;-73
2023/07/03 04:22:54;;;;;;;31.70;6.65;;;14.40;93.30;;;;;;4877239;28;87764;-73
2023/07/03 04:25:20;;;;;;;30.90;6.10;;;14.50;93.30;;;;;;4879340;28;87102;-73
2023/07/03 04:27:45;;;;;;;28.92;5.90;;;14.50;93.40;;;;;;4880012;28;88533;-77
2023/07/03 04:30:11;;;;;;;34.53;6.15;;;14.50;93.40;;;;;;4879314;28;87596;-74
2023/07/03 04:32:38;;;;;;;40.67;7.05;;;14.60;93.40;;;;;;4876952;28;88958;-72
2023/07/03 04:35:04;;;;;;;30.52;6.15;;;14.60;93.30;;;;;;4878523;28;89004;-73
2023/07/03 04:37:30;;;;;;;27.98;5.78;;;14.60;93.30;;;;;;4877653;28;88827;-73
2023/07/03 04:39:56;;;;;;;29.92;5.65;;;14.60;93.30;;;;;;4878004;28;88721;-77
2023/07/03 04:42:22;;;;;;;21.83;5.80;;;14.60;93.40;;;;;;4878583;28;87613;-73
2023/07/03 04:44:48;;;;;;;27.05;6.43;;;14.70;93.40;;;;;;4875792;28;87554;-73
2023/07/03 04:47:18;;;;;;;33.42;6.72;;;14.70;93.30;;;;;;4855802;28;90590;-73
2023/07/03 04:49:45;;;;;;;30.13;6.22;;;14.70;93.20;;;;;;4872547;28;88055;-72
2023/07/03 04:52:13;;;;;;;29.88;6.68;;;14.70;93.30;;;;;;4873955;28;87515;-73
2023/07/03 04:54:39;;;;;;;27.30;6.55;;;14.80;93.20;;;;;;4873532;28;87460;-73
2023/07/03 04:57:04;;;;;;;29.55;6.53;;;14.80;93.20;;;;;;4873813;28;89124;-73
2023/07/03 04:59:30;;;;;;;22.73;5.60;;;14.80;93.10;;;;;;4871226;28;89273;-74
2023/07/03 05:01:56;;;;;;;28.58;6.15;;;14.90;93.00;;;;;;4871528;28;87363;-73
2023/07/03 05:04:22;;;;;;;25.95;5.97;;;14.90;93.00;;;;;;4872435;28;88092;-73
2023/07/03 05:06:48;;;;;;;29.00;6.20;;;14.90;93.00;;;;;;4870757;28;88301;-73
2023/07/03 05:09:14;;;;;;;31.95;6.43;;;14.90;92.80;;;;;;4870673;28;88015;-73
2023/07/03 05:11:40;;;;;;;22.75;6.15;;;15.00;92.80;;;;;;4871845;28;87601;-73
2023/07/03 05:14:05;;;;;;;44.88;7.25;;;15.00;92.80;;;;;;4872174;28;86985;-73
2023/07/03 05:16:31;;;;;;;32.63;7.20;;;15.00;92.80;;;;;;4872574;28;87953;-72
2023/07/03 05:18:57;;;;;;;31.13;6.65;;;15.00;92.80;;;;;;4871531;28;88633;-73
2023/07/03 05:21:22;;;;;;;31.10;6.28;;;15.00;92.70;;;;;;4872654;28;88505;-73
2023/07/03 05:23:48;;;;;;;26.17;5.50;;;15.10;92.80;;;;;;4872925;28;87752;-73
2023/07/03 05:26:13;;;;;;;28.00;6.05;;;15.10;92.50;;;;;;4872646;28;87855;-73
2023/07/03 05:28:39;;;;;;;25.00;6.40;;;15.10;92.40;;;;;;4870737;28;88287;-73
2023/07/03 05:31:04;;;;;;;26.75;6.35;;;15.20;92.60;;;;;;4871307;28;87739;-73
2023/07/03 05:33:30;;;;;;;19.50;5.68;;;15.20;92.60;;;;;;4871739;28;88076;-72
2023/07/03 05:36:00;;;;;;;22.85;5.88;;;15.30;92.50;;;;;;4870576;28;95480;-72
2023/07/03 05:38:25;;;;;;;26.00;6.53;;;15.30;92.50;;;;;;4854321;28;90213;-72
2023/07/03 05:40:51;;;;;;;36.15;7.70;;;15.30;92.40;;;;;;4872087;28;94214;-72
2023/07/03 05:43:17;;;;;;;22.58;6.55;;;15.30;92.20;;;;;;4869454;28;87798;-72
2023/07/03 05:45:44;;;;;;;25.83;7.03;;;15.30;92.20;;;;;;4870193;28;90810;-73
2023/07/03 05:48:09;;;;;;;21.98;6.53;;;15.40;92.30;;;;;;4871128;28;90896;-72
2023/07/03 05:50:35;;;;;;;27.08;5.35;;;15.40;92.30;;;;;;4870487;28;87803;-73
2023/07/03 05:53:01;;;;;;;31.23;6.78;;;15.40;92.20;;;;;;4870237;28;87557;-73
2023/07/03 05:55:26;;;;;;;28.73;6.85;;;15.50;92.10;;;;;;4870306;28;87652;-73
2023/07/03 05:57:52;;;;;;;24.77;6.93;;;15.50;92.00;;;;;;4871048;28;88125;-72
2023/07/03 06:00:17;;;;;;;31.45;7.18;;;15.50;92.20;;;;;;4870965;28;87615;-73
2023/07/03 06:02:44;;;;;;;24.80;7.05;;;15.50;92.10;;;;;;4870044;28;87349;-73
2023/07/03 06:05:11;;;;;;;24.02;6.45;;;15.60;92.00;;;;;;4870319;28;88242;-73
2023/07/03 06:07:38;;;;;;;26.20;7.22;;;15.60;91.70;;;;;;4870239;28;88332;-72
2023/07/03 06:10:05;;;;;;;27.85;5.85;;;15.60;91.70;;;;;;4869383;28;88777;-73
2023/07/03 06:12:31;;;;;;;25.13;6.18;;;15.70;91.30;;;;;;4870024;28;87927;-73
2023/07/03 06:14:58;;;;;;;33.90;5.88;;;15.80;91.00;;;;;;4857592;28;93033;-73
2023/07/03 06:17:25;;;;;;;30.83;6.38;;;15.90;91.10;;;;;;4857598;28;88939;-73
2023/07/03 06:19:51;;;;;;;25.00;5.95;;;15.90;91.00;;;;;;4874528;28;87740;-73
2023/07/03 06:22:17;;;;;;;24.75;6.13;;;16.00;91.10;;;;;;4874643;28;87577;-73
2023/07/03 06:24:42;;;;;;;22.27;5.30;;;16.20;90.60;;;;;;4882370;28;89632;-77
2023/07/03 06:27:08;;;;;;;24.20;6.80;;;16.20;90.40;;;;;;4867783;28;89344;-77
2023/07/03 06:29:34;;;;;;;24.90;5.60;;;16.30;88.70;;;;;;4882960;28;87611;-78
2023/07/03 06:31:59;;;;;;;24.60;5.47;;;16.40;89.00;;;;;;4883128;28;87701;-78
2023/07/03 06:34:25;;;;;;;17.48;5.15;;;16.50;88.70;;;;;;4881709;28;90116;-77
2023/07/03 06:36:51;;;;;;;25.17;5.55;;;16.60;88.60;;;;;;4881713;28;90028;-76
2023/07/03 06:39:20;;;;;;;18.88;5.00;;;16.70;87.70;;;;;;4882525;28;87744;-76
2023/07/03 06:41:45;;;;;;;24.17;6.13;;;16.90;86.30;;;;;;4880228;28;87814;-77
2023/07/03 06:44:14;;;;;;;28.13;5.30;;;17.00;84.90;;;;;;4880377;28;87830;-77
2023/07/03 06:46:40;;;;;;;23.40;5.90;;;17.10;84.20;;;;;;4879099;28;88934;-77
2023/07/03 06:49:05;;;;;;;18.15;5.00;;;17.20;84.90;;;;;;4879640;28;87378;-77
2023/07/03 06:51:31;;;;;;;20.95;5.40;;;17.30;83.50;;;;;;4885495;28;86971;-77
2023/07/03 06:53:57;;;;;;;20.88;4.60;;;17.50;83.40;;;;;;4880211;28;88629;-76
2023/07/03 06:56:23;;;;;;;27.23;4.93;;;17.60;83.00;;;;;;4877185;28;91373;-76
2023/07/03 06:58:50;;;;;;;33.42;6.00;;;17.80;80.60;;;;;;4879567;28;88882;-76
2023/07/03 07:01:19;;;;;;;18.23;5.15;;;17.80;80.40;;;;;;4888878;28;87569;-76
2023/07/03 07:03:45;;;;;;;21.48;4.60;;;18.00;81.00;;;;;;4883743;28;87363;-76
2023/07/03 07:06:17;;;;;;;20.33;4.35;;;18.00;76.60;;;;;;4879313;28;88328;-77
2023/07/03 07:08:43;;;;;;;18.52;4.70;;;18.00;77.10;;;;;;4878868;28;87878;-76
2023/07/03 07:11:14;;;;;;;19.50;4.30;;;18.00;76.60;;;;;;4880104;28;87646;-77
2023/07/03 07:13:42;;;;;;;20.70;4.50;;;18.00;77.30;;;;;;4879784;28;88753;-76
2023/07/03 07:16:12;;;;;;;17.63;4.82;;;18.10;76.90;;;;;;4879460;28;88224;-76
2023/07/03 07:18:38;;;;;;;22.35;4.60;;;18.00;76.00;;;;;;4878579;28;87756;-76
2023/07/03 07:21:04;;;;;;;19.58;4.55;;;18.00;76.10;;;;;;4878392;28;88766;-77
2023/07/03 07:23:30;;;;;;;19.75;5.15;;;18.00;77.10;;;;;;4861304;28;92904;-76
2023/07/03 07:25:55;;;;;;;18.70;5.63;;;18.00;77.90;;;;;;4879839;28;88246;-79
2023/07/03 07:28:21;;;;;;;20.88;5.15;;;17.90;77.10;;;;;;4866657;28;88832;-78
2023/07/03 07:30:48;;;;;;;25.08;5.38;;;17.90;78.00;;;;;;4881979;28;87987;-78
2023/07/03 07:33:16;;;;;;;17.33;4.93;;;17.90;78.50;;;;;;4880945;28;88382;-78
2023/07/03 07:35:43;;;;;;;21.25;5.40;;;17.90;78.80;;;;;;4875604;28;90269;-79
2023/07/03 07:38:10;;;;;;;22.30;4.72;;;17.90;79.80;;;;;;4880959;28;87164;-79
2023/07/03 07:40:35;;;;;;;23.73;5.60;;;18.00;79.80;;;;;;4883357;28;87986;-78
2023/07/03 07:43:01;;;;;;;20.83;5.65;;;18.00;79.80;;;;;;4882088;28;94839;-79
2023/07/03 07:45:27;;;;;;;18.92;5.47;;;18.10;80.60;;;;;;4880801;28;87966;-79
2023/07/03 07:47:53;;;;;;;20.17;5.32;;;18.10;79.80;;;;;;4882178;28;88400;-80
2023/07/03 07:50:18;;;;;;;22.30;6.30;;;18.20;79.70;;;;;;4887518;28;87476;-79
2023/07/03 07:52:44;;;;;;;24.95;6.22;;;18.20;79.90;;;;;;4882806;28;88654;-80
2023/07/03 07:55:10;;;;;;;23.45;6.57;;;18.20;79.40;;;;;;4879725;28;88101;-79
2023/07/03 07:57:35;;;;;;;17.77;5.00;;;18.20;79.00;;;;;;4884261;28;87418;-78
2023/07/03 08:00:02;;;;;;;21.00;5.63;;;18.20;76.50;;;;;;4881710;28;87820;-79
2023/07/03 08:02:28;;;;;;;19.63;5.28;;;18.20;76.30;;;;;;4883579;28;87758;-80
2023/07/03 08:04:54;;;;;;;15.70;4.80;;;18.10;77.00;;;;;;4884244;28;88326;-79
2023/07/03 08:07:29;;;;;;;23.33;5.10;;;18.10;76.50;;;;;;4886419;28;87094;-79
2023/07/03 08:09:54;;;;;;;16.65;5.70;;;18.00;76.60;;;;;;4881240;28;87800;-79
2023/07/03 08:12:20;;;;;;;16.15;4.75;;;18.00;77.20;;;;;;4882195;28;88914;-79
2023/07/03 08:14:46;;;;;;;17.48;4.88;;;18.00;76.40;;;;;;4880376;28;89810;-78
2023/07/03 08:17:11;;;;;;;17.38;4.72;;;18.00;77.60;;;;;;4883751;28;87634;-78
2023/07/03 08:19:37;;;;;;;17.80;5.03;;;18.10;78.20;;;;;;4884483;28;87916;-78
2023/07/03 08:22:03;;;;;;;17.77;4.07;;;18.10;77.10;;;;;;4881390;28;89190;-77
2023/07/03 08:24:28;;;;;;;17.38;4.28;;;18.10;76.40;;;;;;4882174;28;88862;-78
2023/07/03 08:26:54;;;;;;;18.15;4.75;;;18.10;76.90;;;;;;4880209;28;87594;-78
2023/07/03 08:29:20;;;;;;;21.08;4.68;;;18.10;77.30;;;;;;4880180;28;87204;-80
2023/07/03 08:31:45;;;;;;;17.38;3.85;;;18.20;76.90;;;;;;4883229;28;87883;-79
2023/07/03 08:34:11;;;;;;;17.83;4.60;;;18.10;76.80;;;;;;4882287;28;88276;-76
2023/07/03 08:36:40;;;;;;;20.30;4.50;;;18.00;76.20;;;;;;4880139;28;88633;-77
2023/07/03 08:39:06;;;;;;;14.35;3.58;;;18.00;77.00;;;;;;4888365;28;88055;-77
2023/07/03 08:41:38;;;;;;;20.67;5.00;;;18.00;77.60;;;;;;4885279;28;88350;-79
2023/07/03 08:44:04;;;;;;;17.40;4.63;;;18.10;75.50;;;;;;4858894;28;90772;-77
2023/07/03 08:46:32;;;;;;;22.80;4.57;;;18.10;75.50;;;;;;4879980;28;87664;-79
2023/07/03 08:49:03;;;;;;;22.45;3.95;;;18.20;75.50;;;;;;4877636;28;89539;-76
2023/07/03 08:51:32;;;;;;;14.15;3.40;;;18.30;75.00;;;;;;4879102;28;88704;-77
2023/07/03 08:54:20;;;;;;;16.02;4.00;;;18.60;75.10;;;;;;4887059;28;92963;-78
2023/07/03 08:56:47;;;;;;;15.75;3.75;;;18.80;70.20;;;;;;4883047;28;90491;-77
2023/07/03 08:59:13;;;;;;;15.57;4.20;;;18.90;69.90;;;;;;4874580;28;87465;-78
2023/07/03 09:02:02;;;;;;;16.30;3.90;;;19.00;67.30;;;;;;4883517;28;89598;-78
2023/07/03 09:04:49;;;;;;;20.98;4.15;;;19.00;67.80;;;;;;4888284;28;89829;-79
2023/07/03 09:07:45;;;;;;;29.33;4.93;;;19.00;67.10;;;;;;4879229;28;87433;-79
2023/07/03 09:10:46;;;;;;;17.50;4.30;;;18.90;66.60;;;;;;4880704;28;88178;-79
2023/07/03 09:13:30;;;;;;;33.65;5.40;;;18.80;67.40;;;;;;4847432;28;89032;-79
2023/07/03 09:16:18;;;;;;;30.15;5.65;;;18.80;68.10;;;;;;4887228;28;88081;-78
2023/07/03 09:18:51;;;;;;;18.55;3.70;;;18.80;67.50;;;;;;4880556;28;87700;-79
2023/07/03 09:21:16;;;;;;;12.98;3.80;;;18.90;67.60;;;;;;4879967;28;87567;-79
2023/07/03 09:24:14;;;;;;;23.95;4.72;;;18.90;67.80;;;;;;4862009;28;91884;-78
2023/07/03 09:27:15;;;;;;;22.60;3.88;;;19.00;68.90;;;;;;4858267;28;88749;-78
2023/07/03 09:29:42;;;;;;;18.65;4.18;;;19.10;69.20;;;;;;4878916;28;88644;-79
2023/07/03 09:32:11;;;;;;;11.93;3.85;;;19.20;68.30;;;;;;4878334;28;87550;-79
2023/07/03 09:35:07;;;;;;;13.27;3.67;;;19.30;68.20;;;;;;4879299;28;87859;-77
2023/07/03 09:37:40;;;;;;;13.60;3.70;;;19.20;69.00;;;;;;4871914;28;88971;-76
2023/07/03 09:40:09;;;;;;;;;;;19.30;68.00;;;;;;4867692;28;95501;-76
2023/07/03 09:42:36;;;;;;;18.70;4.25;;;19.30;67.70;;;;;;4881982;28;87541;-78
2023/07/03 09:45:11;;;;;;;15.68;3.50;;;19.30;68.10;;;;;;4872398;28;91854;-76
2023/07/03 09:47:36;;;;;;;17.77;4.05;;;19.30;68.80;;;;;;4878717;28;91167;-76
2023/07/03 09:50:06;;;;;;;15.38;3.80;;;19.40;69.80;;;;;;4882224;28;88141;-77
2023/07/03 09:52:32;;;;;;;12.77;3.95;;;19.50;67.70;;;;;;4871286;28;87230;-77
2023/07/03 09:55:01;;;;;;;11.25;3.65;;;19.30;66.00;;;;;;4866776;28;91361;-80
2023/07/03 09:57:28;;;;;;;12.23;3.42;;;19.20;65.50;;;;;;4884307;28;92443;-77
2023/07/03 10:00:06;;;;;;;16.48;3.70;;;19.10;66.30;;;;;;4887932;28;87531;-79
2023/07/03 10:02:32;;;;;;;16.15;3.72;;;19.10;66.40;;;;;;4871255;28;88865;-78
2023/07/03 10:04:57;;;;;;;12.70;3.45;;;19.00;67.00;;;;;;4881403;28;90575;-78
2023/07/03 10:07:23;;;;;;;14.15;4.03;;;19.10;66.40;;;;;;4880600;28;91998;-79
2023/07/03 10:09:49;;;;;;;14.00;3.65;;;19.20;67.80;;;;;;4881963;28;87786;-78
2023/07/03 10:12:32;;;;;;;16.50;3.55;;;19.40;67.70;;;;;;4883194;28;87448;-78
2023/07/03 10:15:10;;;;;;;14.38;3.55;;;19.60;66.70;;;;;;4880447;28;92670;-78
2023/07/03 10:17:46;;;;;;;15.80;5.03;;;19.80;64.70;;;;;;4877458;28;95409;-78
2023/07/03 10:20:23;;;;;;;15.00;3.55;;;19.80;65.40;;;;;;4878428;28;88619;-78
2023/07/03 10:22:50;;;;;;;17.55;4.10;;;19.90;64.20;;;;;;4875282;28;90914;-78
2023/07/03 10:25:36;;;;;;;14.30;3.58;;;20.00;64.70;;;;;;4877663;28;89711;-78
2023/07/03 10:28:08;;;;;;;11.38;3.50;;;20.10;62.30;;;;;;4878768;28;88362;-80
2023/07/03 10:30:37;;;;;;;14.50;3.65;;;20.20;63.20;;;;;;4872863;28;87514;-78
2023/07/03 10:33:10;;;;;;;16.77;3.67;;;20.30;63.10;;;;;;4882854;28;87482;-78
2023/07/03 10:35:40;;;;;;;12.95;3.42;;;20.40;62.30;;;;;;4881003;28;89242;-77
2023/07/03 10:38:06;;;;;;;16.20;3.67;;;20.60;60.80;;;;;;4881845;28;88575;-78
2023/07/03 10:40:45;;;;;;;10.52;3.42;;;20.70;59.20;;;;;;4883044;28;87502;-78
2023/07/03 10:43:13;;;;;;;18.42;3.35;;;20.80;58.30;;;;;;4882552;28;88421;-77
2023/07/03 10:45:39;;;;;;;14.10;3.60;;;20.90;58.90;;;;;;4863371;28;91004;-78
2023/07/03 10:48:17;;;;;;;13.07;3.15;;;21.10;57.00;;;;;;4881037;28;89852;-78
2023/07/03 10:51:21;;;;;;;9.60;3.13;;;21.00;55.00;;;;;;4880643;28;87488;-78
2023/07/03 10:54:14;;;;;;;12.07;3.40;;;20.90;55.90;;;;;;4879465;28;90148;-78
2023/07/03 10:56:50;;;;;;;11.40;3.38;;;20.70;56.50;;;;;;4880832;28;88733;-78
2023/07/03 10:59:28;;;;;;;10.35;2.47;;;20.70;56.10;;;;;;4862991;28;91244;-78
2023/07/03 11:02:02;;;;;;;10.50;3.05;;;20.80;58.30;;;;;;4879276;28;87812;-78
2023/07/03 11:04:50;;;;;;;14.60;3.95;;;21.00;58.10;;;;;;4880827;28;87287;-78
2023/07/03 11:07:25;;;;;;;10.75;3.42;;;21.30;56.00;;;;;;4880639;28;87598;-77
2023/07/03 11:10:17;;;;;;;10.80;2.58;;;21.30;55.60;;;;;;4869188;28;91048;-78
2023/07/03 11:13:01;;;;;;;10.13;3.20;;;21.40;56.50;;;;;;4879536;28;88675;-78
2023/07/03 11:15:57;;;;;;;20.83;3.40;;;21.60;56.10;;;;;;4881676;28;87635;-78
2023/07/03 11:18:28;;;;;;;13.30;2.83;;;21.80;57.00;;;;;;4880715;28;92813;-78
2023/07/03 11:21:10;;;;;;;15.88;3.92;;;22.00;53.00;;;;;;4879300;28;89889;-78
2023/07/03 11:23:51;;;;;;;11.57;3.05;;;22.00;52.80;;;;;;4878106;28;87507;-78
2023/07/03 11:26:25;;;;;;;9.48;2.90;;;22.00;53.80;;;;;;4880385;28;87391;-78
2023/07/03 11:28:54;;;;;;;26.35;4.20;;;22.10;55.00;;;;;;4879560;28;87734;-78
2023/07/03 11:31:22;;;;;;;12.32;3.00;;;22.20;53.50;;;;;;4880366;28;88649;-83
2023/07/03 11:33:49;;;;;;;10.80;2.78;;;22.30;54.60;;;;;;4880478;28;87971;-78
2023/07/03 11:36:39;;;;;;;9.52;3.05;;;22.30;52.60;;;;;;4864067;28;90826;-77
2023/07/03 11:39:15;;;;;;;13.85;2.67;;;22.40;52.50;;;;;;4878892;28;94296;-78
2023/07/03 11:42:00;;;;;;;12.68;3.15;;;22.50;52.40;;;;;;4862518;28;92088;-78
2023/07/03 11:44:30;;;;;;;12.60;3.00;;;22.60;53.50;;;;;;4879708;28;87543;-78
2023/07/03 11:47:24;;;;;;;10.35;2.80;;;22.70;53.10;;;;;;4879390;28;88791;-78
2023/07/03 11:49:58;;;;;;;9.18;2.50;;;22.90;52.90;;;;;;4874247;28;89051;-78
2023/07/03 11:52:27;;;;;;;11.23;2.65;;;22.90;50.20;;;;;;4879685;28;88383;-78
2023/07/03 11:55:04;;;;;;;12.45;3.03;;;22.80;49.70;;;;;;4879642;28;87709;-78
2023/07/03 11:57:37;;;;;;;13.00;2.50;;;22.80;51.60;;;;;;4863979;28;90986;-78
2023/07/03 12:00:28;;;;;;;8.48;2.22;;;22.90;50.50;;;;;;4862663;28;94706;-78
2023/07/03 12:03:05;;;;;;;8.80;2.58;;;23.00;51.00;;;;;;4879432;28;88093;-78
2023/07/03 12:05:43;;;;;;;11.98;3.20;;;23.30;51.10;;;;;;4879686;28;88556;-78
2023/07/03 12:08:18;;;;;;;12.65;3.00;;;23.50;52.30;;;;;;4880222;28;87546;-78
2023/07/03 12:10:49;;;;;;;11.60;2.60;;;23.70;50.00;;;;;;4877979;28;88818;-78
2023/07/03 12:13:35;;;;;;;16.30;2.90;;;23.90;49.90;;;;;;4879052;28;88108;-78
2023/07/03 12:16:06;;;;;;;10.30;2.47;;;24.00;49.40;;;;;;4879893;28;87583;-78
2023/07/03 12:18:33;;;;;;;14.57;3.05;;;24.00;50.20;;;;;;4862274;28;90888;-77
2023/07/03 12:21:02;;;;;;;8.88;2.58;;;24.00;49.70;;;;;;4879055;28;88084;-82
2023/07/03 12:23:33;;;;;;;12.68;2.40;;;24.00;48.10;;;;;;4879590;28;87188;-77
2023/07/03 12:26:05;;;;;;;12.50;2.85;;;23.80;49.00;;;;;;4878183;28;87580;-77
2023/07/03 12:28:31;;;;;;;12.25;2.08;;;23.70;48.90;;;;;;4861954;28;89694;-79
2023/07/03 12:31:15;;;;;;;14.05;2.58;;;23.60;47.90;;;;;;4863382;28;90098;-78
2023/07/03 12:33:59;;;;;;;11.23;2.45;;;23.60;46.60;;;;;;4861763;28;93993;-80
2023/07/03 12:36:33;;;;;;;10.27;2.10;;;23.70;46.10;;;;;;4863273;28;87570;-79
2023/07/03 12:39:08;;;;;;;6.45;1.98;;;23.70;46.00;;;;;;4862313;28;94828;-80
2023/07/03 12:41:33;;;;;;;10.82;2.22;;;23.50;46.30;;;;;;4871066;28;91729;-79
2023/07/03 12:44:01;;;;;;;12.85;1.83;;;23.50;46.50;;;;;;4861919;28;91962;-79
2023/07/03 12:46:34;;;;;;;12.60;2.22;;;23.60;48.00;;;;;;4860995;28;87579;-79
2023/07/03 12:49:20;;;;;;;8.00;2.25;;;23.90;47.00;;;;;;4870415;28;88875;-79
2023/07/03 12:51:54;;;;;;;9.73;2.60;;;23.90;46.90;;;;;;4877679;28;89218;-79